Station: Esperance Airport

  Atmospheric Gas Attenuation - ITU Rec 676-11   --------------- db/100km ---------------
Date Time Temp RH % AH g/m3 Dew Point Wind Direction Speed kph Gust kph Barometer mB Rainfall Since 9am 24GHz 47GHz 76GHz 122GHz 134GHz 241GHz
04 04:00 8.5 100 8.54 8.5 15 22 1009.4 25.4 19.7 27.2 42.1 110.7 104.2 358.2
04 03:40 8.5 100 8.54 8.5 9 9 1009.5 25.2 19.7 27.2 42.1 110.7 104.2 358.3
04 03:30 8.4 100 8.49 8.4 9 13 1009.3 24.8 19.6 27.2 42.0 110.2 103.7 356.2
04 03:20 8.5 100 8.54 8.5 9 13 1009.8 24.8 19.7 27.3 42.1 110.7 104.3 358.4
04 03:10 8.6 100 8.6 8.6 9 13 1009.1 24.8 19.8 27.3 42.3 111.2 104.9 360.7
04 03:00 8.5 100 8.54 8.5 9 15 1009.2 24.8 19.7 27.2 42.1 110.7 104.2 358.2
04 02:50 8.5 100 8.54 8.5 13 15 1009.8 24.8 19.7 27.3 42.1 110.7 104.3 358.4
04 02:40 8.5 100 8.54 8.5 11 13 1010 24.8 19.7 27.3 42.2 110.7 104.3 358.4
04 02:30 8.5 100 8.54 8.5 7 13 1009.2 24.6 19.7 27.2 42.1 110.7 104.2 358.2
04 02:20 8.4 100 8.49 8.4 11 13 1008.9 24.6 19.6 27.2 41.9 110.2 103.6 356.1
04 02:10 8.5 100 8.54 8.5 13 15 1009.8 24.6 19.7 27.3 42.1 110.7 104.3 358.4
04 02:00 8.5 100 8.54 8.5 13 19 1010.3 24.6 19.7 27.3 42.2 110.8 104.3 358.5
04 01:50 8.5 100 8.54 8.5 13 13 1010.2 24.6 19.7 27.3 42.2 110.8 104.3 358.5
04 01:30 8.5 100 8.54 8.5 11 13 1009.4 24.6 19.7 27.2 42.1 110.7 104.2 358.2
04 01:20 8.5 100 8.54 8.5 11 13 1009.2 24.6 19.7 27.2 42.1 110.7 104.2 358.2
04 01:10 8.5 100 8.54 8.5 6 7 1009.1 24.6 19.7 27.2 42.1 110.6 104.2 358.2
04 01:00 8.6 100 8.6 8.6 9 13 1010.4 24.6 19.8 27.4 42.4 111.3 105.0 361.0
04 00:50 8.6 100 8.6 8.6 9 11 1010.4 24.6 19.8 27.4 42.4 111.3 105.0 361.0
04 00:40 8.7 100 8.65 8.7 9 11 1010.1 24.6 20.0 27.4 42.5 111.7 105.6 363.0
04 00:30 8.7 100 8.65 8.7 11 17 1010 24.6 20.0 27.4 42.5 111.7 105.6 362.9
04 00:20 8.8 100 8.71 8.8 11 13 1009.6 24.6 20.1 27.4 42.7 112.2 106.2 365.3
04 00:10 8.8 100 8.71 8.8 9 11 1010.4 24.6 20.1 27.5 42.7 112.3 106.3 365.6
04 00:00 8.8 100 8.71 8.8 9 13 1010.3 24.4 20.1 27.5 42.7 112.3 106.3 365.5
03 23:50 8.7 100 8.65 8.7 0 0 1010.1 24.4 20.0 27.4 42.5 111.7 105.6 363.0
03 23:40 8.7 100 8.65 8.7 0 0 1009.9 24.4 20.0 27.4 42.5 111.7 105.6 362.9
03 23:30 8.7 100 8.65 8.7 7 9 1009.9 24.4 20.0 27.4 42.5 111.7 105.6 362.9
03 23:20 8.7 100 8.65 8.7 7 9 1009.7 24.4 20.0 27.4 42.5 111.7 105.5 362.8
03 23:10 8.7 100 8.65 8.7 13 15 1009.7 24 20.0 27.4 42.5 111.7 105.5 362.8
03 23:00 8.8 100 8.71 8.8 15 20 1010.1 24 20.1 27.5 42.7 112.3 106.3 365.5
03 22:50 8.9 100 8.76 8.9 11 13 1010.5 23.8 20.2 27.5 42.9 112.8 106.9 367.6
03 22:40 9 100 8.82 9 13 15 1010.7 23 20.3 27.6 43.1 113.3 107.6 370.2
03 22:30 8.9 100 8.76 8.9 17 24 1010.9 22.8 20.2 27.6 42.9 112.8 106.9 367.7
03 22:20 9 100 8.82 9 20 24 1010.9 22.8 20.3 27.6 43.1 113.3 107.6 370.2
03 22:10 9 100 8.82 9 15 20 1011.1 22.2 20.3 27.6 43.1 113.4 107.7 370.3
03 22:00 9 100 8.82 9 19 24 1011 21.6 20.3 27.6 43.1 113.4 107.7 370.2
03 21:50 9.1 100 8.88 9.1 19 22 1010.7 21.6 20.4 27.7 43.3 113.9 108.3 372.7
03 21:40 9.2 100 8.93 9.2 17 19 1010.9 21.4 20.5 27.8 43.5 114.3 108.9 374.7
03 21:30 9.2 99 8.84 9.1 20 26 1011.1 20.8 20.3 27.6 43.1 113.3 107.7 370.3
03 21:20 9.2 99 8.84 9.1 24 28 1010.8 20 20.3 27.6 43.1 113.3 107.6 370.2
03 21:10 9.2 99 8.84 9.1 20 22 1010.9 19.6 20.3 27.6 43.1 113.3 107.6 370.2
03 21:00 9.3 99 8.9 9.2 24 30 1010.6 18.4 20.5 27.7 43.3 113.8 108.3 372.7
03 20:50 9.3 99 8.9 9.2 24 28 1010.6 16 20.5 27.7 43.3 113.8 108.3 372.7
03 20:40 9.3 99 8.9 9.2 20 28 1010.8 13.2 20.5 27.7 43.3 113.8 108.3 372.7
03 20:30 9.5 99 9.01 9.4 11 19 1010.9 10.4 20.7 27.8 43.7 114.8 109.6 377.2
03 20:20 9.6 98 8.98 9.3 11 17 1010.9 8.8 20.6 27.7 43.5 114.3 109.1 375.3
03 20:10 9.8 97 9 9.3 17 19 1010.5 5.6 20.7 27.7 43.4 114.2 109.0 375.2
03 20:00 10.4 94 9.06 9.5 26 46 1010.7 2 20.8 27.6 43.4 114.0 109.0 375.3
03 19:50 13.1 96 10.96 12.5 26 30 1009.8 0.4 24.7 30.0 50.0 131.6 131.8 455.1
03 19:40 13 95 10.77 12.2 24 32 1009.2 0.4 24.3 29.7 49.2 129.5 129.2 445.9
03 19:30 13 95 10.77 12.2 26 43 1008.9 0.4 24.3 29.6 49.2 129.5 129.1 445.8
03 19:20 13.1 94 10.73 12.2 28 35 1009 0.4 24.2 29.5 48.9 128.8 128.4 443.3
03 19:10 13.1 94 10.73 12.2 30 37 1008.7 0.4 24.2 29.5 48.9 128.8 128.4 443.2
03 19:00 13.1 95 10.84 12.3 30 43 1008.8 0.4 24.4 29.7 49.4 130.1 129.9 448.7
03 18:50 13.2 94 10.79 12.3 30 39 1008.9 0.4 24.3 29.6 49.1 129.4 129.1 445.7
03 18:40 13.2 95 10.91 12.4 32 41 1008.6 0.4 24.6 29.8 49.6 130.7 130.8 451.6
03 18:30 13.2 96 11.02 12.6 32 50 1008 0.4 24.8 30.0 50.1 131.9 132.3 456.9
03 18:20 13 98 11.11 12.7 24 32 1008.5 0.4 25.0 30.2 50.6 133.4 134.0 462.9
03 18:10 12.9 98 11.05 12.6 24 33 1008.7 0.4 24.9 30.2 50.4 132.9 133.3 460.5
03 18:00 12.8 99 11.09 12.6 28 39 1008.6 0.4 25.0 30.3 50.7 133.5 134.1 463.1
03 17:50 12.8 99 11.09 12.6 28 33 1008.4 0.4 25.0 30.3 50.7 133.5 134.1 463.0
03 17:40 12.7 99 11.02 12.5 28 39 1008.3 0.4 24.9 30.2 50.4 132.8 133.2 460.0
03 17:30 12.7 99 11.02 12.5 33 46 1007.9 0.4 24.9 30.2 50.4 132.8 133.2 459.9
03 17:20 12.6 99 10.95 12.4 41 56 1007.8 0.4 24.7 30.1 50.1 132.1 132.3 456.9
03 17:10 12.6 99 10.95 12.4 30 44 1007.8 0.4 24.7 30.1 50.1 132.1 132.3 456.9
03 17:00 12.6 99 10.95 12.4 30 48 1007.9 0.4 24.7 30.1 50.2 132.1 132.3 456.9
03 16:50 12.6 99 10.95 12.4 30 39 1007.9 0.4 24.7 30.1 50.2 132.1 132.3 456.9
03 16:40 12.6 99 10.95 12.4 33 41 1008 0.4 24.7 30.1 50.2 132.1 132.3 457.0
03 16:30 12.6 99 10.95 12.4 32 54 1008.2 0.4 24.7 30.1 50.2 132.2 132.3 457.0
03 16:20 12.6 99 10.95 12.4 30 37 1008.2 0.4 24.7 30.1 50.2 132.2 132.3 457.0
03 16:10 12.5 100 11 12.5 30 37 1008.3 0.4 24.8 30.2 50.5 132.9 133.3 460.2
03 16:00 12.5 100 11 12.5 32 52 1008.3 0.4 24.8 30.2 50.5 132.9 133.3 460.2
03 15:50 12.6 99 10.95 12.4 35 46 1008.3 0.4 24.7 30.1 50.2 132.2 132.4 457.1
03 15:40 12.5 99 10.89 12.3 39 46 1008.2 0.4 24.6 30.0 50.0 131.6 131.6 454.6
03 15:30 12.6 99 10.95 12.4 32 48 1008.2 0.4 24.7 30.1 50.2 132.2 132.3 457.0
03 15:20 12.6 99 10.95 12.4 33 43 1008.3 0.4 24.7 30.1 50.2 132.2 132.4 457.1
03 15:10 12.6 99 10.95 12.4 32 46 1008.5 0.4 24.7 30.1 50.2 132.2 132.4 457.1
03 15:00 12.7 98 10.91 12.4 32 56 1008.7 0.4 24.6 30.0 50.0 131.6 131.6 454.6
03 14:50 13.1 97 11.07 12.6 30 50 1008.7 0.2 24.9 30.1 50.4 132.8 133.3 460.3
03 14:40 13.3 97 11.21 12.8 30 44 1008.7 0.2 25.2 30.3 50.9 134.1 134.9 466.2
03 14:30 13.3 97 11.21 12.8 33 52 1008.7 0.2 25.2 30.3 50.9 134.1 134.9 466.2
03 14:20 13.7 95 11.25 12.9 32 39 1008.9 0.2 25.3 30.2 50.8 133.9 134.8 465.9
03 14:10 13.9 96 11.51 13.3 28 39 1009 0.2 25.8 30.6 51.8 136.6 138.3 477.8
03 14:00 13.9 96 11.51 13.3 30 46 1009.1 0.2 25.8 30.6 51.8 136.6 138.3 477.9
03 13:50 13.8 97 11.56 13.3 22 30 1009.2 0.2 26.0 30.8 52.1 137.4 139.2 481.1
03 13:40 13.7 95 11.25 12.9 28 39 1009.5 0.2 25.3 30.3 50.8 134.0 134.9 466.1
03 13:30 14.4 87 10.75 12.3 30 44 1009.5 0.2 24.2 29.2 48.2 127.0 126.5 437.0
03 13:20 15 82 10.51 12 28 33 1009.5 0 23.6 28.5 46.8 123.3 122.2 422.0
03 13:10 14.9 82 10.45 11.9 39 54 1009.6 0 23.5 28.5 46.6 122.8 121.5 419.6
03 13:00 14.9 84 10.71 12.2 26 43 1009.6 0 24.1 28.9 47.7 125.7 125.2 432.3
03 12:50 14.6 86 10.76 12.3 28 35 1009.9 0 24.2 29.1 48.2 126.8 126.4 436.5
03 12:40 14.5 89 11.07 12.7 26 37 1009.9 0 24.9 29.7 49.6 130.5 130.9 452.4
03 12:30 14.2 90 10.99 12.6 30 44 1010.1 0 24.7 29.7 49.4 130.1 130.3 450.3
03 12:20 14.4 90 11.13 12.8 30 43 1010.3 0 25.0 29.9 49.9 131.5 132.0 456.1
03 12:10 14.3 91 11.18 12.9 24 30 1010.3 0 25.1 30.0 50.2 132.2 132.9 459.2
03 12:00 14.7 91 11.46 13.2 26 41 1010.5 0 25.7 30.3 51.2 134.8 136.2 470.9
03 11:50 14.3 93 11.43 13.2 28 39 1010.8 0 25.6 30.4 51.3 135.2 136.6 472.0
03 11:40 14.3 88 10.81 12.3 32 43 1010.9 0 24.3 29.4 48.6 128.0 127.7 441.0
03 11:30 15 82 10.51 12 28 41 1011 0 23.6 28.6 46.9 123.5 122.4 422.4
03 11:20 14.7 82 10.32 11.7 30 39 1011.1 0 23.2 28.4 46.3 121.8 120.2 414.9
03 11:10 15 80 10.26 11.6 28 41 1011.2 0 23.1 28.2 45.9 120.7 118.9 410.4

Last Refresh: 04-Aug-2020 05:43:23

Most of the information presented on this site is sourced from the Bureau of Meteorology.  Copyright in all material sourced from the Bureau of Meteorology resides with the Commonwealth of Australia.